»·PEaware :: N80678 KPDX-KPDX

N80678 :: KPDX-KPDX

FLIGHT INFORMATION

Flight Status: Arrived
Operator: Privately registered:
United States
More flights under this callsign
Pilot: Isaac M. (22798)
Aircraft: CESSNA 172 SKYHAWK
(C172)
More flights by this aircraft type
Origin: KPDX Portland Intl
United States
Destination: KPDX Portland Intl
United States
More flights between these airports :: More routes between these airports
Route: +
File this flight plan on PilotEdge
Remarks:
Altitude:
(Current/Filed)
0ft
Speed:
(Current/Filed)
0kts
Departed: 12-Jan-19 11:08 AM
Arrived: 12-Jan-19 12:21 PM
Distance/Time
Traveled:
1nm/1:13
Distance/Time
To Go:
Arrived

Flight Plot

Page will automatically refresh every two minutes.


Map Options




Map Legend


Flown Route
Filed Route
Departure Airport
Arrival Airport
Navaid (VOR, NDB)
Fix

Horizontal Profiles

Position Reports

Time Latitude Longitude Heading Altitude Ground
Speed
12-Jan-19 10:56 45.591953 -122.596469 193 27ft 0kts
12-Jan-19 10:57 45.591953 -122.596469 193 27ft 0kts
12-Jan-19 10:58 45.591953 -122.596469 193 27ft 0kts
12-Jan-19 10:59 45.591953 -122.596469 193 27ft 0kts
12-Jan-19 11:00 45.591838 -122.596515 199 27ft 6kts
12-Jan-19 11:01 45.591023 -122.591343 115 27ft 9kts
12-Jan-19 11:02 45.589504 -122.586922 73 27ft 13kts
12-Jan-19 11:03 45.588100 -122.581652 117 27ft 21kts
12-Jan-19 11:04 45.584465 -122.572305 114 27ft 27kts
12-Jan-19 11:05 45.582833 -122.567659 81 27ft 0kts
12-Jan-19 11:06 45.582833 -122.567658 81 27ft 0kts
12-Jan-19 11:07 45.586455 -122.574034 302 98ft 72kts
12-Jan-19 11:08 45.597399 -122.599314 315 895ft 73kts
12-Jan-19 11:09 45.600116 -122.577734 105 1427ft 103kts
12-Jan-19 11:10 45.588752 -122.531601 104 1408ft 128kts
12-Jan-19 11:11 45.577304 -122.488649 105 1997ft 100kts
12-Jan-19 11:12 45.569370 -122.460852 100 2856ft 79kts
12-Jan-19 11:13 45.563236 -122.423239 98 2952ft 104kts
12-Jan-19 11:14 45.562362 -122.381209 91 3023ft 101kts
12-Jan-19 11:15 45.562664 -122.343016 93 3053ft 90kts
12-Jan-19 11:16 45.563195 -122.306450 91 3075ft 92kts
12-Jan-19 11:17 45.563685 -122.269820 90 3089ft 92kts
12-Jan-19 11:18 45.565907 -122.232921 75 3097ft 95kts
12-Jan-19 11:19 45.576857 -122.197655 73 3092ft 96kts
12-Jan-19 11:20 45.587865 -122.162702 72 3098ft 95kts
12-Jan-19 11:21 45.598802 -122.127936 71 3104ft 96kts
12-Jan-19 11:22 45.609769 -122.093015 73 3109ft 95kts
12-Jan-19 11:23 45.608110 -122.069570 197 3323ft 114kts
12-Jan-19 11:24 45.600349 -122.047112 58 3306ft 111kts
12-Jan-19 11:25 45.617396 -122.010220 64 2956ft 107kts
12-Jan-19 11:26 45.633843 -121.973645 62 1774ft 114kts
12-Jan-19 11:27 45.648398 -121.941751 64 1025ft 78kts
12-Jan-19 11:28 45.659599 -121.916893 63 820ft 70kts
12-Jan-19 11:29 45.667353 -121.891763 66 941ft 68kts
12-Jan-19 11:30 45.678190 -121.864582 16 962ft 112kts
12-Jan-19 11:31 45.673341 -121.901392 160 979ft 94kts
12-Jan-19 11:32 45.674978 -121.879460 64 499ft 65kts
12-Jan-19 11:33 45.677169 -121.886094 238 378ft 99kts
12-Jan-19 11:34 45.674824 -121.881036 89 214ft 40kts
12-Jan-19 11:35 45.684599 -121.862720 50 884ft 68kts
12-Jan-19 11:36 45.700298 -121.852229 336 1704ft 86kts
12-Jan-19 11:37 45.698527 -121.884761 213 1124ft 89kts
12-Jan-19 11:38 45.680348 -121.904568 207 253ft 74kts
12-Jan-19 11:39 45.678985 -121.907178 65 123ft 41kts
12-Jan-19 11:40 45.679839 -121.905400 93 140ft 0kts
12-Jan-19 11:41 45.679839 -121.905400 93 140ft 0kts
12-Jan-19 11:42 45.679839 -121.905400 93 140ft 0kts
12-Jan-19 11:43 45.679839 -121.905400 93 140ft 0kts
12-Jan-19 11:44 45.772687 -122.864310 257 62ft 0kts
12-Jan-19 11:45 45.772687 -122.864310 257 62ft 0kts
12-Jan-19 11:46 45.772687 -122.864310 257 62ft 0kts
12-Jan-19 11:47 45.772687 -122.864310 257 62ft 0kts
12-Jan-19 11:48 45.772687 -122.864310 257 62ft 0kts
12-Jan-19 11:49 45.772687 -122.864310 257 62ft 0kts
12-Jan-19 11:50 45.772687 -122.864310 257 62ft 0kts
12-Jan-19 11:51 45.772687 -122.864310 257 62ft 0kts
12-Jan-19 11:52 45.772687 -122.864310 257 62ft 0kts
12-Jan-19 11:53 45.772687 -122.864310 257 62ft 0kts
12-Jan-19 11:54 45.772687 -122.864310 257 62ft 0kts
12-Jan-19 11:55 45.772687 -122.864310 257 62ft 0kts
12-Jan-19 11:56 45.772687 -122.864310 257 62ft 0kts
12-Jan-19 11:57 45.772687 -122.864310 257 62ft 0kts
12-Jan-19 11:58 45.772687 -122.864310 257 62ft 0kts
12-Jan-19 11:59 45.772687 -122.864310 257 62ft 0kts
12-Jan-19 12:00 45.772687 -122.864310 257 62ft 0kts
12-Jan-19 12:01 45.772687 -122.864310 257 62ft 0kts
12-Jan-19 12:02 45.772685 -122.864324 258 62ft 0kts
12-Jan-19 12:03 45.772622 -122.864496 221 62ft 5kts
12-Jan-19 12:04 45.773453 -122.863413 347 62ft 16kts
12-Jan-19 12:05 45.777491 -122.864612 7 62ft 0kts
12-Jan-19 12:06 45.777510 -122.864609 5 62ft 0kts
12-Jan-19 12:07 45.777510 -122.864609 6 62ft 0kts
12-Jan-19 12:08 45.777510 -122.864609 6 62ft 0kts
12-Jan-19 12:09 45.777729 -122.864092 91 62ft 12kts
12-Jan-19 12:10 45.764727 -122.850181 126 420ft 94kts
12-Jan-19 12:11 45.743709 -122.818003 135 845ft 116kts
12-Jan-19 12:12 45.720411 -122.784740 134 1248ft 118kts
12-Jan-19 12:13 45.696925 -122.751221 134 1599ft 122kts
12-Jan-19 12:14 45.671158 -122.714537 134 1524ft 127kts
12-Jan-19 12:15 45.646746 -122.679804 134 1520ft 121kts
12-Jan-19 12:16 45.625740 -122.642690 124 1121ft 123kts
12-Jan-19 12:17 45.608402 -122.606572 115 1046ft 102kts
12-Jan-19 12:18 45.595100 -122.571442 115 1027ft 100kts
12-Jan-19 12:19 45.579917 -122.555861 289 612ft 74kts
12-Jan-19 12:20 45.586697 -122.575009 277 27ft 24kts
12-Jan-19 12:21 45.585454 -122.577048 203 27ft 17kts
12-Jan-19 12:22 45.586240 -122.580963 296 27ft 16kts
12-Jan-19 12:23 45.587013 -122.582476 356 27ft 0kts
12-Jan-19 12:24 45.587013 -122.582476 356 27ft 0kts
12-Jan-19 12:25 45.587013 -122.582475 356 27ft 0kts
12-Jan-19 12:26 45.587013 -122.582475 356 27ft 0kts
12-Jan-19 12:28 45.587013 -122.582475 356 27ft 0kts
12-Jan-19 12:29 45.587013 -122.582475 356 27ft 0kts
12-Jan-19 12:30 45.587013 -122.582475 356 27ft 0kts
12-Jan-19 12:31 45.587013 -122.582475 356 27ft 0kts
12-Jan-19 12:32 45.587013 -122.582475 356 27ft 0kts

Navigation Log

Ident Type
Flight plan parsing failed, navigation log unavailable